Terminal Aerodrome Forecast
Issued by NWS

Home | Current Version | Previous Version | Text Only | Print | Product List | Glossary On
Versions: 1 2 3 4 5 6 7 8 9 10 11 12 13 14 15 16 17 18 19
000
FTUS45 KABQ 282344 RRA
TAFSAF
TAF
KSAF 282344Z 2900/2924 13005KT P6SM VCSH BKN010 OVC030
      TEMPO 2900/2904 5SM -RA BR BKN007
     FM290400 03006KT P6SM BKN010 OVC030
     FM290900 09010KT 3SM BR VCSH OVC005
     FM291200 08015KT 1SM -SN BR OVC003
     FM291900 02013KT 5SM -SN BR BKN009 OVC019=

USA.gov is the U.S. government's official web portal to all federal, state and local government web resources and services.